createdAt,value
2023-04-13T00:00:47.072Z,99.90
2023-04-13T00:03:17.957Z,99.90
2023-04-13T00:05:46.968Z,99.90
2023-04-13T00:08:14.699Z,99.90
2023-04-13T00:10:42.075Z,99.90
2023-04-13T00:13:12.435Z,99.90
2023-04-13T00:15:46.234Z,99.90
2023-04-13T00:18:13.489Z,99.90
2023-04-13T00:20:42.015Z,99.90
2023-04-13T00:23:09.258Z,99.90
2023-04-13T00:25:36.447Z,99.90
2023-04-13T00:28:04.198Z,99.90
2023-04-13T00:30:31.547Z,99.90
2023-04-13T00:32:58.690Z,99.90
2023-04-13T00:35:26.842Z,99.90
2023-04-13T00:37:54.211Z,99.90
2023-04-13T00:40:24.797Z,99.90
2023-04-13T00:42:53.659Z,99.90
2023-04-13T00:45:20.744Z,99.90
2023-04-13T00:47:49.507Z,99.90
2023-04-13T00:50:20.812Z,99.90
2023-04-13T00:52:48.999Z,99.90
2023-04-13T00:55:21.228Z,99.90
2023-04-13T00:57:50.505Z,99.90
2023-04-13T01:00:18.731Z,99.90
2023-04-13T01:02:45.866Z,99.90
2023-04-13T01:05:15.583Z,99.90
2023-04-13T01:07:51.221Z,99.90
2023-04-13T01:10:27.753Z,99.90
2023-04-13T01:13:20.651Z,99.90
2023-04-13T01:16:09.736Z,99.90
2023-04-13T01:18:41.774Z,99.90
2023-04-13T01:21:14.980Z,99.90
2023-04-13T01:24:02.195Z,99.90
2023-04-13T01:26:42.330Z,99.90
2023-04-13T01:29:10.293Z,99.90
2023-04-13T01:31:37.927Z,99.90
2023-04-13T01:34:05.278Z,99.90
2023-04-13T01:36:33.715Z,99.90
2023-04-13T01:39:01.464Z,99.90
2023-04-13T01:41:31.132Z,99.90
2023-04-13T01:43:59.181Z,99.90
2023-04-13T01:46:34.409Z,99.90
2023-04-13T01:49:11.193Z,99.90
2023-04-13T01:51:59.158Z,99.90
2023-04-13T01:54:31.517Z,99.90
2023-04-13T01:57:02.271Z,99.90
2023-04-13T01:59:30.398Z,99.90
2023-04-13T02:01:59.534Z,99.90
2023-04-13T02:04:26.756Z,99.90
2023-04-13T02:06:53.908Z,99.90
2023-04-13T02:09:29.505Z,99.90
2023-04-13T02:11:56.599Z,99.90
2023-04-13T02:14:23.770Z,99.90
2023-04-13T02:16:52.040Z,99.90
2023-04-13T02:19:20.397Z,99.90
2023-04-13T02:21:47.951Z,99.90
2023-04-13T02:24:15.006Z,99.90
2023-04-13T02:26:42.295Z,99.90
2023-04-13T02:29:10.062Z,99.90
2023-04-13T02:31:37.679Z,99.90
2023-04-13T02:34:05.753Z,99.90
2023-04-13T02:36:33.261Z,99.90
2023-04-13T02:39:06.766Z,99.90
2023-04-13T02:41:34.870Z,99.90
2023-04-13T02:44:02.605Z,99.90
2023-04-13T02:46:36.654Z,99.90
2023-04-13T02:49:09.657Z,99.90
2023-04-13T02:51:43.067Z,99.90
2023-04-13T02:54:11.803Z,99.90
2023-04-13T02:56:44.906Z,99.90
2023-04-13T02:59:12.354Z,99.90
2023-04-13T03:01:39.849Z,99.90
2023-04-13T03:04:11.457Z,99.90
2023-04-13T03:06:38.555Z,99.90
2023-04-13T03:09:06.308Z,99.90
2023-04-13T03:11:45.800Z,99.90
2023-04-13T03:14:21.467Z,99.90
2023-04-13T03:16:54.956Z,99.90
2023-04-13T03:19:26.705Z,99.90
2023-04-13T03:21:54.134Z,99.90
2023-04-13T03:24:28.530Z,99.90
2023-04-13T03:26:59.131Z,99.90
2023-04-13T03:29:33.344Z,99.90
2023-04-13T03:32:00.968Z,99.90
2023-04-13T03:34:32.641Z,99.90
2023-04-13T03:37:04.324Z,99.90
2023-04-13T03:39:31.507Z,99.90
2023-04-13T03:41:58.626Z,99.90
2023-04-13T03:44:26.722Z,99.90
2023-04-13T03:46:53.909Z,99.90
2023-04-13T03:49:30.526Z,99.90
2023-04-13T03:51:59.052Z,99.90
2023-04-13T03:54:32.534Z,99.90
2023-04-13T03:57:02.314Z,99.90
2023-04-13T03:59:31.858Z,99.90
2023-04-13T04:01:59.638Z,99.90
2023-04-13T04:04:27.411Z,99.90
2023-04-13T04:06:54.688Z,99.90
2023-04-13T04:09:21.730Z,99.90
2023-04-13T04:11:48.926Z,99.90
2023-04-13T04:14:23.694Z,99.90
2023-04-13T04:17:00.533Z,99.90
2023-04-13T04:19:28.194Z,99.90
2023-04-13T04:21:57.965Z,99.90
2023-04-13T04:24:29.923Z,99.90
2023-04-13T04:27:00.475Z,99.90
2023-04-13T04:29:36.780Z,99.90
2023-04-13T04:32:37.093Z,99.90
2023-04-13T04:35:16.847Z,99.90
2023-04-13T04:37:51.003Z,99.90
2023-04-13T04:40:19.552Z,99.90
2023-04-13T04:42:46.981Z,99.90
2023-04-13T04:45:27.577Z,99.90
2023-04-13T04:47:57.925Z,99.90
2023-04-13T04:50:26.734Z,99.90
2023-04-13T04:53:05.306Z,99.90
2023-04-13T04:55:34.348Z,99.90
2023-04-13T04:58:02.376Z,99.90
2023-04-13T05:00:31.610Z,99.90
2023-04-13T05:03:08.784Z,99.90
2023-04-13T05:05:39.742Z,99.90
2023-04-13T05:08:11.967Z,99.90
2023-04-13T05:10:47.712Z,99.90
2023-04-13T05:13:15.700Z,99.90
2023-04-13T05:15:50.781Z,99.90
2023-04-13T05:18:19.396Z,99.90
2023-04-13T05:20:47.366Z,99.90
2023-04-13T05:23:14.448Z,99.90
2023-04-13T05:25:49.517Z,99.90
2023-04-13T05:28:21.955Z,99.90
2023-04-13T05:30:49.815Z,99.90
2023-04-13T05:33:18.082Z,99.90
2023-04-13T05:35:48.257Z,99.90
2023-04-13T05:38:16.166Z,99.90
2023-04-13T05:40:43.464Z,99.90
2023-04-13T05:43:11.407Z,99.90
2023-04-13T05:45:44.840Z,99.90
2023-04-13T05:48:14.866Z,99.90
2023-04-13T05:50:44.304Z,99.90
2023-04-13T05:53:12.806Z,99.90
2023-04-13T05:55:48.458Z,99.90
2023-04-13T05:58:18.867Z,99.90
2023-04-13T06:00:48.431Z,99.90
2023-04-13T06:03:22.880Z,99.90
2023-04-13T06:05:50.153Z,99.90
2023-04-13T06:08:17.407Z,99.90
2023-04-13T06:10:47.265Z,99.90
2023-04-13T06:13:15.828Z,99.90
2023-04-13T06:15:43.419Z,99.90
2023-04-13T06:18:10.877Z,99.90
2023-04-13T06:20:37.949Z,99.90
2023-04-13T06:23:05.269Z,99.90
2023-04-13T06:25:32.580Z,99.90
2023-04-13T06:28:04.579Z,99.90
2023-04-13T06:30:34.994Z,99.90
2023-04-13T06:33:07.343Z,99.90
2023-04-13T06:35:35.944Z,99.90
2023-04-13T06:38:03.519Z,99.90
2023-04-13T06:41:02.219Z,99.90
2023-04-13T06:43:32.096Z,99.90
2023-04-13T06:46:22.873Z,99.90
2023-04-13T06:48:51.951Z,99.90
2023-04-13T06:51:24.038Z,99.90
2023-04-13T06:53:53.856Z,99.90
2023-04-13T06:56:21.691Z,99.90
2023-04-13T06:58:49.802Z,99.90
2023-04-13T07:01:17.590Z,99.90
2023-04-13T07:03:46.121Z,99.90
2023-04-13T07:06:15.409Z,99.90
2023-04-13T07:08:42.833Z,99.90
2023-04-13T07:11:10.414Z,99.90
2023-04-13T07:13:39.366Z,99.90
2023-04-13T07:16:09.941Z,99.90
2023-04-13T07:18:39.058Z,99.90
2023-04-13T07:21:07.367Z,99.90
2023-04-13T07:24:00.283Z,99.90
2023-04-13T07:26:28.870Z,99.90
2023-04-13T07:28:57.067Z,99.90
2023-04-13T07:31:28.048Z,99.90
2023-04-13T07:33:56.058Z,99.90
2023-04-13T07:36:30.039Z,99.90
2023-04-13T07:39:01.693Z,99.90
2023-04-13T07:41:31.015Z,99.90
2023-04-13T07:44:00.489Z,99.90
2023-04-13T07:46:27.764Z,99.90
2023-04-13T07:48:55.906Z,99.90
2023-04-13T07:51:27.312Z,99.90
2023-04-13T07:53:54.775Z,99.90
2023-04-13T07:56:22.897Z,99.90
2023-04-13T07:58:53.607Z,99.90
2023-04-13T08:01:22.078Z,99.90
2023-04-13T08:03:50.721Z,99.90
2023-04-13T08:06:23.312Z,99.90
2023-04-13T08:08:52.847Z,99.90
2023-04-13T08:11:20.313Z,99.90
2023-04-13T08:13:51.142Z,99.90
2023-04-13T08:16:18.294Z,99.90
2023-04-13T08:18:45.461Z,99.90
2023-04-13T08:21:15.292Z,99.90
2023-04-13T08:23:45.161Z,99.90
2023-04-13T08:26:19.906Z,99.90
2023-04-13T08:28:51.049Z,99.90
2023-04-13T08:31:18.134Z,99.90
2023-04-13T08:33:55.343Z,99.90
2023-04-13T08:36:24.600Z,99.90
2023-04-13T08:38:59.316Z,99.90
2023-04-13T08:41:27.864Z,99.90
2023-04-13T08:43:56.615Z,99.90
2023-04-13T08:46:27.666Z,99.90
2023-04-13T08:48:59.274Z,99.90
2023-04-13T08:51:36.989Z,99.90
2023-04-13T08:54:04.611Z,99.90
2023-04-13T08:56:46.393Z,99.90
2023-04-13T08:59:19.822Z,99.90
2023-04-13T09:01:48.934Z,99.90
2023-04-13T09:04:20.042Z,99.90
2023-04-13T09:06:51.379Z,99.90
2023-04-13T09:09:21.430Z,99.90
2023-04-13T09:11:51.534Z,99.90
2023-04-13T09:14:23.253Z,99.90
2023-04-13T09:16:52.556Z,99.90
2023-04-13T09:19:33.164Z,99.90
2023-04-13T09:22:14.473Z,99.90
2023-04-13T09:24:41.870Z,99.90
2023-04-13T09:27:23.476Z,99.90
2023-04-13T09:29:54.529Z,99.90
2023-04-13T09:32:22.941Z,99.90
2023-04-13T09:35:08.546Z,99.90
2023-04-13T09:37:36.952Z,99.90
2023-04-13T09:40:14.502Z,99.90
2023-04-13T09:42:43.119Z,99.90
2023-04-13T09:45:10.694Z,99.90
2023-04-13T09:47:40.750Z,96.10
2023-04-13T09:50:28.530Z,99.90
2023-04-13T09:53:05.977Z,93.90
2023-04-13T09:55:34.769Z,93.10
2023-04-13T09:58:15.774Z,80.10
2023-04-13T10:00:46.738Z,74.80
2023-04-13T10:03:15.714Z,67.90
2023-04-13T10:08:21.835Z,65.80
2023-04-13T10:10:54.728Z,70.00
2023-04-13T10:13:35.154Z,72.50
2023-04-13T10:16:05.251Z,85.80
2023-04-13T10:19:02.164Z,80.60
2023-04-13T10:21:40.056Z,69.40
2023-04-13T10:24:12.108Z,72.10
2023-04-13T10:26:41.143Z,66.10
2023-04-13T10:29:09.311Z,75.40
2023-04-13T10:31:38.010Z,74.20
2023-04-13T10:34:08.517Z,75.90
2023-04-13T10:36:38.546Z,75.50
2023-04-13T10:39:05.830Z,77.80
2023-04-13T10:41:33.170Z,77.50
2023-04-13T10:44:04.825Z,78.00
2023-04-13T10:46:34.295Z,71.70
2023-04-13T10:49:03.292Z,79.40
2023-04-13T10:51:43.527Z,74.00
2023-04-13T10:54:12.579Z,80.50
2023-04-13T10:56:40.475Z,68.70
2023-04-13T10:59:08.238Z,74.90
2023-04-13T11:01:35.948Z,74.20
2023-04-13T11:04:07.789Z,72.40
2023-04-13T11:06:39.008Z,69.50
2023-04-13T11:09:07.569Z,69.00
2023-04-13T11:11:37.039Z,65.50
2023-04-13T11:14:04.635Z,66.10
2023-04-13T11:16:31.906Z,68.80
2023-04-13T11:19:05.602Z,69.00
2023-04-13T11:21:32.916Z,68.10
2023-04-13T11:24:02.540Z,69.50
2023-04-13T11:26:38.674Z,67.70
2023-04-13T11:29:06.398Z,72.10
2023-04-13T11:31:40.661Z,72.20
2023-04-13T11:34:09.838Z,69.40
2023-04-13T11:36:39.114Z,65.50
2023-04-13T11:39:11.028Z,67.30
2023-04-13T11:41:44.646Z,73.20
2023-04-13T11:44:12.616Z,71.60
2023-04-13T11:46:39.885Z,76.00
2023-04-13T11:49:07.344Z,68.70
2023-04-13T11:51:35.227Z,71.30
2023-04-13T11:54:02.982Z,73.00
2023-04-13T11:56:31.276Z,67.70
2023-04-13T11:58:58.881Z,69.80
2023-04-13T12:01:31.036Z,72.40
2023-04-13T12:04:14.980Z,70.40
2023-04-13T12:06:47.400Z,71.50
2023-04-13T12:09:17.748Z,71.00
2023-04-13T12:11:52.021Z,69.00
2023-04-13T12:17:06.318Z,73.80
2023-04-13T12:19:45.927Z,68.90
2023-04-13T12:22:14.924Z,73.80
2023-04-13T12:24:42.833Z,73.70
2023-04-13T12:27:18.238Z,71.40
2023-04-13T12:29:46.438Z,71.20
2023-04-13T12:32:15.076Z,74.60
2023-04-13T12:34:43.495Z,69.90
2023-04-13T12:37:13.553Z,72.00
2023-04-13T12:39:42.438Z,75.30
2023-04-13T12:42:09.840Z,68.70
2023-04-13T12:44:36.887Z,71.70
2023-04-13T12:47:03.972Z,73.40
2023-04-13T12:49:31.197Z,73.20
2023-04-13T12:51:58.148Z,75.90
2023-04-13T12:54:25.201Z,81.50
2023-04-13T12:56:52.547Z,81.70
2023-04-13T12:59:22.527Z,83.70
2023-04-13T13:01:49.955Z,80.30
2023-04-13T13:04:17.616Z,87.00
2023-04-13T13:06:44.705Z,75.90
2023-04-13T13:09:12.082Z,79.30
2023-04-13T13:11:39.202Z,76.30
2023-04-13T13:14:06.360Z,76.50
2023-04-13T13:16:33.771Z,69.30
2023-04-13T13:19:01.065Z,68.10
2023-04-13T13:21:28.294Z,67.30
2023-04-13T13:23:55.389Z,69.70
2023-04-13T13:26:24.925Z,69.30
2023-04-13T13:28:54.428Z,66.50
2023-04-13T13:31:21.872Z,67.60
2023-04-13T13:33:48.943Z,67.60
2023-04-13T13:36:16.256Z,70.90
2023-04-13T13:38:43.813Z,73.40
2023-04-13T13:41:11.072Z,70.90
2023-04-13T13:43:39.419Z,77.80
2023-04-13T13:46:09.154Z,84.10
2023-04-13T13:48:39.181Z,84.50
2023-04-13T13:51:20.993Z,74.70
2023-04-13T13:53:48.377Z,76.10
2023-04-13T13:56:15.521Z,76.30
2023-04-13T13:58:42.728Z,79.70
2023-04-13T14:01:10.249Z,78.90
2023-04-13T14:03:37.706Z,77.90
2023-04-13T14:06:05.104Z,83.10
2023-04-13T14:08:32.408Z,77.40
2023-04-13T14:11:01.021Z,76.80
2023-04-13T14:13:28.030Z,83.60
2023-04-13T14:15:56.433Z,87.20
2023-04-13T14:18:26.556Z,82.80
2023-04-13T14:20:53.927Z,80.30
2023-04-13T14:23:21.235Z,87.40
2023-04-13T14:25:48.501Z,85.30
2023-04-13T14:28:17.631Z,84.60
2023-04-13T14:30:45.254Z,84.40
2023-04-13T14:33:14.731Z,85.20
2023-04-13T14:35:42.576Z,87.40
2023-04-13T14:38:09.811Z,92.50
2023-04-13T14:40:37.022Z,91.00
2023-04-13T14:43:04.126Z,93.00
2023-04-13T14:45:31.394Z,91.50
2023-04-13T14:47:58.611Z,94.20
2023-04-13T14:50:25.858Z,92.10
2023-04-13T14:52:52.955Z,93.90
2023-04-13T14:55:20.447Z,95.30
2023-04-13T14:57:48.149Z,92.50
2023-04-13T15:00:22.310Z,90.00
2023-04-13T15:02:52.693Z,96.50
2023-04-13T15:05:20.927Z,99.90
2023-04-13T15:07:48.895Z,99.90
2023-04-13T15:10:16.641Z,99.90
2023-04-13T15:12:44.172Z,99.90
2023-04-13T15:15:11.520Z,99.90
2023-04-13T15:17:38.778Z,99.90
2023-04-13T15:20:07.695Z,99.90
2023-04-13T15:22:36.337Z,99.90
2023-04-13T15:25:03.810Z,99.90
2023-04-13T15:27:31.130Z,99.90
2023-04-13T15:30:03.488Z,99.90
2023-04-13T15:32:33.810Z,99.90
2023-04-13T15:35:00.934Z,99.90
2023-04-13T15:37:28.058Z,99.90
2023-04-13T15:39:55.312Z,99.90
2023-04-13T15:42:22.891Z,99.90
2023-04-13T15:44:50.362Z,99.90
2023-04-13T15:47:17.357Z,99.90
2023-04-13T15:49:44.445Z,99.90
2023-04-13T15:52:11.457Z,99.90
2023-04-13T15:54:38.434Z,99.90
2023-04-13T15:57:05.794Z,99.90
2023-04-13T15:59:34.829Z,99.90
2023-04-13T16:02:02.375Z,99.90
2023-04-13T16:04:29.649Z,99.90
2023-04-13T16:07:12.089Z,99.90
2023-04-13T16:09:47.151Z,99.90
2023-04-13T16:12:14.432Z,99.90
2023-04-13T16:14:45.478Z,99.90
2023-04-13T16:17:14.988Z,99.90
2023-04-13T16:19:47.199Z,99.90
2023-04-13T16:22:14.644Z,99.90
2023-04-13T16:24:42.088Z,99.90
2023-04-13T16:27:10.237Z,99.90
2023-04-13T16:29:37.392Z,99.90
2023-04-13T16:32:04.504Z,99.90
2023-04-13T16:34:31.562Z,99.90
2023-04-13T16:36:58.609Z,99.90
2023-04-13T16:39:25.965Z,99.90
2023-04-13T16:41:52.984Z,99.90
2023-04-13T16:44:20.209Z,99.90
2023-04-13T16:46:47.239Z,99.90
2023-04-13T16:49:14.320Z,99.90
2023-04-13T16:51:41.302Z,99.90
2023-04-13T16:54:11.669Z,99.90
2023-04-13T16:56:38.738Z,99.90
2023-04-13T16:59:06.850Z,99.90
2023-04-13T17:01:36.101Z,99.90
2023-04-13T17:04:05.543Z,99.90
2023-04-13T17:06:36.149Z,99.90
2023-04-13T17:09:03.480Z,99.90
2023-04-13T17:11:30.660Z,99.90
2023-04-13T17:13:58.186Z,99.90
2023-04-13T17:16:29.197Z,99.90
2023-04-13T17:18:56.995Z,99.90
2023-04-13T17:21:24.326Z,99.90
2023-04-13T17:23:51.366Z,99.90
2023-04-13T17:26:19.035Z,99.90
2023-04-13T17:28:46.055Z,99.90
2023-04-13T17:31:13.428Z,99.90
2023-04-13T17:33:40.663Z,99.90
2023-04-13T17:36:07.862Z,99.90
2023-04-13T17:38:35.318Z,99.90
2023-04-13T17:41:02.308Z,99.90
2023-04-13T17:43:29.368Z,99.90
2023-04-13T17:45:56.503Z,99.90
2023-04-13T17:48:23.803Z,99.90
2023-04-13T17:50:51.745Z,99.90
2023-04-13T17:53:18.786Z,99.90
2023-04-13T17:55:45.835Z,99.90
2023-04-13T17:58:13.044Z,99.90
2023-04-13T18:00:40.094Z,99.90
2023-04-13T18:03:09.314Z,99.90
2023-04-13T18:05:36.755Z,99.90
2023-04-13T18:08:04.164Z,99.90
2023-04-13T18:10:31.260Z,99.90
2023-04-13T18:13:01.553Z,99.90
2023-04-13T18:15:28.637Z,99.90
2023-04-13T18:17:55.848Z,99.90
2023-04-13T18:20:23.283Z,99.90
2023-04-13T18:22:50.406Z,99.90
2023-04-13T18:25:17.493Z,99.90
2023-04-13T18:27:44.570Z,99.90
2023-04-13T18:30:12.402Z,99.90
2023-04-13T18:32:39.568Z,99.90
2023-04-13T18:35:07.091Z,99.90
2023-04-13T18:37:34.212Z,99.90
2023-04-13T18:40:01.524Z,99.90
2023-04-13T18:42:28.625Z,99.90
2023-04-13T18:44:55.710Z,99.90
2023-04-13T18:47:24.312Z,99.90
2023-04-13T18:49:51.528Z,99.90
2023-04-13T18:52:18.500Z,99.90
2023-04-13T18:54:45.494Z,99.90
2023-04-13T18:57:12.470Z,99.90
2023-04-13T18:59:39.514Z,99.90
2023-04-13T19:02:06.605Z,99.90
2023-04-13T19:04:35.250Z,99.90
2023-04-13T19:07:02.690Z,99.90
2023-04-13T19:09:31.326Z,99.90
2023-04-13T19:12:02.260Z,99.90
2023-04-13T19:14:30.215Z,99.90
2023-04-13T19:16:57.922Z,99.90
2023-04-13T19:19:25.173Z,99.90
2023-04-13T19:21:56.067Z,99.90
2023-04-13T19:24:23.596Z,99.90
2023-04-13T19:26:50.747Z,99.90
2023-04-13T19:29:18.135Z,99.90
2023-04-13T19:31:45.592Z,99.90
2023-04-13T19:34:12.953Z,99.90
2023-04-13T19:36:41.786Z,99.90
2023-04-13T19:39:10.184Z,99.90
2023-04-13T19:41:38.597Z,99.90
2023-04-13T19:44:07.909Z,99.90
2023-04-13T19:46:35.754Z,99.90
2023-04-13T19:49:03.255Z,99.90
2023-04-13T19:51:32.451Z,99.90
2023-04-13T19:54:02.204Z,99.90
2023-04-13T19:56:34.581Z,99.90
2023-04-13T19:59:04.250Z,99.90
2023-04-13T20:01:33.242Z,99.90
2023-04-13T20:04:01.363Z,99.90
2023-04-13T20:06:28.950Z,99.90
2023-04-13T20:09:10.668Z,99.90
2023-04-13T20:11:38.880Z,99.90
2023-04-13T20:14:06.247Z,99.90
2023-04-13T20:16:35.568Z,99.90
2023-04-13T20:19:02.907Z,99.90
2023-04-13T20:21:31.193Z,99.90
2023-04-13T20:23:58.748Z,99.90
2023-04-13T20:26:28.047Z,99.90
2023-04-13T20:29:03.584Z,99.90
2023-04-13T20:31:31.998Z,99.90
2023-04-13T20:33:59.957Z,99.90
2023-04-13T20:36:27.354Z,99.90
2023-04-13T20:38:59.820Z,99.90
2023-04-13T20:41:32.494Z,99.90
2023-04-13T20:44:00.517Z,99.90
2023-04-13T20:46:34.603Z,99.90
2023-04-13T20:49:04.447Z,99.90
2023-04-13T20:51:33.296Z,99.90
2023-04-13T20:54:02.945Z,99.90
2023-04-13T20:56:30.329Z,99.90
2023-04-13T20:58:58.096Z,99.90
2023-04-13T21:01:25.851Z,99.90
2023-04-13T21:03:53.300Z,99.90
2023-04-13T21:06:22.881Z,99.90
2023-04-13T21:08:50.103Z,99.90
2023-04-13T21:11:17.221Z,99.90
2023-04-13T21:13:44.318Z,99.90
2023-04-13T21:16:12.266Z,99.90
2023-04-13T21:18:41.571Z,99.90
2023-04-13T21:21:08.965Z,99.90
2023-04-13T21:23:38.885Z,99.90
2023-04-13T21:26:06.539Z,99.90
2023-04-13T21:28:33.641Z,99.90
2023-04-13T21:31:00.765Z,99.90
2023-04-13T21:33:27.823Z,99.90
2023-04-13T21:35:54.772Z,99.90
2023-04-13T21:38:21.843Z,99.90
2023-04-13T21:40:48.923Z,99.90
2023-04-13T21:43:16.983Z,99.90
2023-04-13T21:45:44.082Z,99.90
2023-04-13T21:48:11.181Z,99.90
2023-04-13T21:50:38.302Z,99.90
2023-04-13T21:53:05.381Z,99.90
2023-04-13T21:55:32.433Z,99.90
2023-04-13T21:57:59.518Z,99.90
2023-04-13T22:00:26.908Z,99.90
2023-04-13T22:02:55.550Z,99.90
2023-04-13T22:05:22.703Z,99.90
2023-04-13T22:07:49.805Z,99.90
2023-04-13T22:10:16.925Z,99.90
2023-04-13T22:12:43.943Z,99.90
2023-04-13T22:15:11.939Z,99.90
2023-04-13T22:17:39.036Z,99.90
2023-04-13T22:20:07.027Z,99.90
2023-04-13T22:22:33.994Z,99.90
2023-04-13T22:25:01.018Z,99.90
2023-04-13T22:27:28.055Z,99.90
2023-04-13T22:29:55.318Z,99.90
2023-04-13T22:32:22.547Z,99.90
2023-04-13T22:34:50.043Z,99.90
2023-04-13T22:37:17.840Z,99.90
2023-04-13T22:39:44.871Z,99.90
2023-04-13T22:42:12.215Z,99.90
2023-04-13T22:44:39.275Z,99.90
2023-04-13T22:47:06.456Z,99.90
2023-04-13T22:49:33.583Z,99.90
2023-04-13T22:52:00.736Z,99.90
2023-04-13T22:54:27.776Z,99.90
2023-04-13T22:56:54.805Z,99.90
2023-04-13T22:59:21.890Z,99.90
2023-04-13T23:01:49.239Z,99.90
2023-04-13T23:04:18.736Z,99.90
2023-04-13T23:06:46.093Z,99.90
2023-04-13T23:09:13.089Z,99.90
2023-04-13T23:11:40.074Z,99.90
2023-04-13T23:14:07.058Z,99.90
2023-04-13T23:16:34.726Z,99.90
2023-04-13T23:19:02.218Z,99.90
2023-04-13T23:21:29.770Z,99.90
2023-04-13T23:23:57.324Z,99.90
2023-04-13T23:26:24.973Z,99.90
2023-04-13T23:28:52.103Z,99.90
2023-04-13T23:31:19.233Z,99.90
2023-04-13T23:33:46.458Z,99.90
2023-04-13T23:36:13.443Z,99.90
2023-04-13T23:38:40.680Z,99.90
2023-04-13T23:41:07.632Z,99.90
2023-04-13T23:43:34.711Z,99.90
2023-04-13T23:46:01.896Z,99.90
2023-04-13T23:48:28.921Z,99.90
2023-04-13T23:50:57.323Z,99.90
2023-04-13T23:53:24.408Z,99.90
2023-04-13T23:55:51.537Z,99.90
2023-04-13T23:58:18.571Z,99.90
